Time;durP1;ratioP1;P1;durP2;ratioP2;P2;SDS_P1;SDS_P2;PMS_P1;PMS_P2;Temp;Humidity;BMP_temperature;BMP_pressure;BME280_temperature;BME280_humidity;BME280_pressure;Samples;Min_cycle;Max_cycle;Signal;HPM_P1;HPM_P2
2022/05/27 00:01:22;;;;;;;;;;;;;;;;;;5074713;28;20333;-47
2022/05/27 00:03:49;;;;;;;;;;;;;;;;;;5092753;28;20224;-51
2022/05/27 00:06:15;;;;;;;;;;;;;;;;;;5092872;28;19911;-48
2022/05/27 00:08:42;;;;;;;;;;;;;;;;;;5092985;28;20366;-52
2022/05/27 00:11:08;;;;;;;;;;;;;;;;;;5093230;28;19915;-45
2022/05/27 00:13:35;;;;;;;;;;;;;;;;;;5092656;28;19935;-53
2022/05/27 00:16:01;;;;;;;;;;;;;;;;;;5092693;28;19920;-54
2022/05/27 00:18:28;;;;;;;;;;;;;;;;;;5092035;28;19950;-52
2022/05/27 00:20:54;;;;;;;;;;;;;;;;;;5092323;28;20268;-52
2022/05/27 00:23:21;;;;;;;;;;;;;;;;;;5074417;28;19973;-48
2022/05/27 00:25:47;;;;;;;;;;;;;;;;;;5092768;28;19931;-51
2022/05/27 00:28:14;;;;;;;;;;;;;;;;;;5092522;28;19923;-48
2022/05/27 00:30:41;;;;;;;;;;;;;;;;;;5092680;28;19931;-50
2022/05/27 00:33:07;;;;;;;;;;;;;;;;;;5092794;28;19948;-44
2022/05/27 00:35:34;;;;;;;;;;;;;;;;;;5092527;28;19908;-54
2022/05/27 00:38:00;;;;;;;;;;;;;;;;;;5074265;28;20411;-47
2022/05/27 00:40:27;;;;;;;;;;;;;;;;;;5091909;28;19982;-52
2022/05/27 00:42:53;;;;;;;;;;;;;;;;;;5092041;28;19908;-51
2022/05/27 00:45:20;;;;;;;;;;;;;;;;;;5092315;28;19956;-47
2022/05/27 00:47:46;;;;;;;;;;;;;;;;;;5091719;28;19934;-51
2022/05/27 00:50:13;;;;;;;;;;;;;;;;;;5092169;28;20020;-53
2022/05/27 00:52:39;;;;;;;;;;;;;;;;;;5091938;28;19915;-52
2022/05/27 00:55:05;;;;;;;;;;;;;;;;;;5092164;28;20060;-47
2022/05/27 00:57:32;;;;;;;;;;;;;;;;;;5093267;28;19908;-51
2022/05/27 00:59:58;;;;;;;;;;;;;;;;;;5095671;28;20050;-50
2022/05/27 01:02:25;;;;;;;;;;;;;;;;;;5095574;28;20279;-53
2022/05/27 01:04:51;;;;;;;;;;;;;;;;;;5095186;28;19908;-45
2022/05/27 01:07:18;;;;;;;;;;;;;;;;;;5095014;28;19943;-51
2022/05/27 01:09:44;;;;;;;;;;;;;;;;;;5095844;28;19981;-54
2022/05/27 01:12:17;;;;;;;;;;;;;;;;;;5096013;28;19962;-53
2022/05/27 01:14:43;;;;;;;;;;;;;;;;;;5094955;28;20041;-51
2022/05/27 01:17:10;;;;;;;;;;;;;;;;;;5095598;28;19908;-51
2022/05/27 01:22:21;;;;;;;;;;;;;;;;;;5095658;28;19918;-48
2022/05/27 01:24:47;;;;;;;;;;;;;;;;;;5095576;28;20019;-53
2022/05/27 01:27:13;;;;;;;;;;;;;;;;;;5095923;28;19962;-54
2022/05/27 01:29:40;;;;;;;;;;;;;;;;;;5095440;28;19945;-51
2022/05/27 01:32:06;;;;;;;;;;;;;;;;;;5095620;28;19912;-45
2022/05/27 01:34:33;;;;;;;;;;;;;;;;;;5077280;28;19954;-51
2022/05/27 01:36:59;;;;;;;;;;;;;;;;;;5095765;28;19912;-50
2022/05/27 01:39:26;;;;;;;;;;;;;;;;;;5096049;28;19909;-54
2022/05/27 01:41:52;;;;;;;;;;;;;;;;;;5095156;28;19961;-52
2022/05/27 01:44:19;;;;;;;;;;;;;;;;;;5095576;28;19908;-51
2022/05/27 01:46:45;;;;;;;;;;;;;;;;;;5094903;28;19976;-53
2022/05/27 01:49:12;;;;;;;;;;;;;;;;;;5095353;28;19938;-54
2022/05/27 01:51:38;;;;;;;;;;;;;;;;;;5095204;28;19908;-48
2022/05/27 01:54:05;;;;;;;;;;;;;;;;;;5094510;28;19908;-55
2022/05/27 01:56:31;;;;;;;;;;;;;;;;;;5094491;28;19991;-52
2022/05/27 01:58:57;;;;;;;;;;;;;;;;;;5094743;28;20343;-53
2022/05/27 02:01:24;;;;;;;;;;;;;;;;;;5094682;28;20402;-52
2022/05/27 02:03:50;;;;;;;;;;;;;;;;;;5076578;28;20326;-46
2022/05/27 02:06:17;;;;;;;;;;;;;;;;;;5094098;28;19907;-56
2022/05/27 02:08:43;;;;;;;;;;;;;;;;;;5093346;28;20343;-54
2022/05/27 02:11:10;;;;;;;;;;;;;;;;;;5094693;28;20049;-53
2022/05/27 02:13:38;;;;;;;;;;;;;;;;;;5094991;28;19938;-56
2022/05/27 02:16:04;;;;;;;;;;;;;;;;;;5094793;28;19966;-50
2022/05/27 02:18:31;;;;;;;;;;;;;;;;;;5094843;28;19916;-57
2022/05/27 02:20:57;;;;;;;;;;;;;;;;;;5094977;28;19909;-44
2022/05/27 02:23:24;;;;;;;;;;;;;;;;;;5093766;28;19915;-50
2022/05/27 02:25:50;;;;;;;;;;;;;;;;;;5094654;28;20263;-55
2022/05/27 02:28:17;;;;;;;;;;;;;;;;;;5094116;28;19908;-53
2022/05/27 02:30:43;;;;;;;;;;;;;;;;;;5094225;28;20218;-54
2022/05/27 02:35:54;;;;;;;;;;;;;;;;;;5094470;28;20109;-54
2022/05/27 02:38:20;;;;;;;;;;;;;;;;;;5094139;28;19951;-56
2022/05/27 02:40:47;;;;;;;;;;;;;;;;;;5093885;28;20343;-53
2022/05/27 02:43:13;;;;;;;;;;;;;;;;;;5094095;28;20286;-58
2022/05/27 02:45:40;;;;;;;;;;;;;;;;;;5094112;28;20309;-51
2022/05/27 02:48:06;;;;;;;;;;;;;;;;;;5093779;28;19938;-57
2022/05/27 02:50:33;;;;;;;;;;;;;;;;;;5077739;28;19919;-52
2022/05/27 02:52:59;;;;;;;;;;;;;;;;;;5073291;28;19920;-54
2022/05/27 02:55:26;;;;;;;;;;;;;;;;;;5073000;28;19909;-50
2022/05/27 02:57:52;;;;;;;;;;;;;;;;;;5073410;28;19909;-53
2022/05/27 03:00:19;;;;;;;;;;;;;;;;;;5073520;28;19916;-57
2022/05/27 03:02:45;;;;;;;;;;;;;;;;;;5072943;28;19954;-58
2022/05/27 03:05:12;;;;;;;;;;;;;;;;;;5073694;28;20309;-54
2022/05/27 03:07:38;;;;;;;;;;;;;;;;;;5087250;28;19920;-50
2022/05/27 03:10:05;;;;;;;;;;;;;;;;;;5093718;28;19924;-55
2022/05/27 03:12:31;;;;;;;;;;;;;;;;;;5092897;28;19908;-54
2022/05/27 03:14:57;;;;;;;;;;;;;;;;;;5093955;28;19950;-55
2022/05/27 03:17:24;;;;;;;;;;;;;;;;;;5093202;28;19915;-55
2022/05/27 03:19:50;;;;;;;;;;;;;;;;;;5093433;28;20274;-45
2022/05/27 03:22:17;;;;;;;;;;;;;;;;;;5093367;28;20255;-53
2022/05/27 03:24:43;;;;;;;;;;;;;;;;;;5092930;28;19908;-54
2022/05/27 03:27:10;;;;;;;;;;;;;;;;;;5093496;28;19912;-50
2022/05/27 03:29:36;;;;;;;;;;;;;;;;;;5092978;28;19919;-51
2022/05/27 03:32:03;;;;;;;;;;;;;;;;;;5093259;28;20274;-56
2022/05/27 03:34:29;;;;;;;;;;;;;;;;;;5093149;28;20257;-49
2022/05/27 03:36:56;;;;;;;;;;;;;;;;;;5093325;28;19908;-55
2022/05/27 03:39:22;;;;;;;;;;;;;;;;;;5093479;28;19905;-55
2022/05/27 03:41:48;;;;;;;;;;;;;;;;;;5093171;28;19908;-54
2022/05/27 03:44:15;;;;;;;;;;;;;;;;;;5092617;28;19997;-54
2022/05/27 03:46:41;;;;;;;;;;;;;;;;;;5092536;28;19908;-50
2022/05/27 03:49:08;;;;;;;;;;;;;;;;;;5092930;28;19916;-58
2022/05/27 03:51:34;;;;;;;;;;;;;;;;;;5093154;28;19912;-56
2022/05/27 03:54:04;;;;;;;;;;;;;;;;;;5092779;28;19908;-54
2022/05/27 03:56:32;;;;;;;;;;;;;;;;;;5093072;28;20283;-56
2022/05/27 03:58:58;;;;;;;;;;;;;;;;;;5092929;28;19908;-55
2022/05/27 04:01:25;;;;;;;;;;;;;;;;;;5092658;28;19912;-52
2022/05/27 04:03:51;;;;;;;;;;;;;;;;;;5092171;28;19915;-57
2022/05/27 04:06:18;;;;;;;;;;;;;;;;;;5092133;28;19908;-50
2022/05/27 04:08:44;;;;;;;;;;;;;;;;;;5092306;28;20381;-57
2022/05/27 04:11:11;;;;;;;;;;;;;;;;;;5092850;28;20328;-51
2022/05/27 04:13:38;;;;;;;;;;;;;;;;;;5092747;28;19920;-47
2022/05/27 04:16:04;;;;;;;;;;;;;;;;;;5092678;28;19951;-51
2022/05/27 04:18:31;;;;;;;;;;;;;;;;;;5092477;28;19926;-52
2022/05/27 04:20:57;;;;;;;;;;;;;;;;;;5092771;28;19909;-53
2022/05/27 04:23:24;;;;;;;;;;;;;;;;;;5092489;28;19908;-57
2022/05/27 04:25:50;;;;;;;;;;;;;;;;;;5092651;28;19973;-55
2022/05/27 04:28:16;;;;;;;;;;;;;;;;;;5091947;28;19908;-55
2022/05/27 04:30:45;;;;;;;;;;;;;;;;;;5092413;28;19995;-54
2022/05/27 04:33:11;;;;;;;;;;;;;;;;;;5091836;28;20263;-60
2022/05/27 04:35:38;;;;;;;;;;;;;;;;;;5091828;28;19984;-51
2022/05/27 04:38:04;;;;;;;;;;;;;;;;;;5092243;28;19908;-53
2022/05/27 04:40:30;;;;;;;;;;;;;;;;;;5092125;28;19915;-54
2022/05/27 04:42:57;;;;;;;;;;;;;;;;;;5092525;28;19908;-54
2022/05/27 04:45:23;;;;;;;;;;;;;;;;;;5092657;28;19912;-55
2022/05/27 04:47:50;;;;;;;;;;;;;;;;;;5092009;28;20351;-54
2022/05/27 04:50:16;;;;;;;;;;;;;;;;;;5091775;28;19916;-51
2022/05/27 04:52:43;;;;;;;;;;;;;;;;;;5091803;28;19908;-56
2022/05/27 04:55:09;;;;;;;;;;;;;;;;;;5091539;28;19927;-54
2022/05/27 04:57:36;;;;;;;;;;;;;;;;;;5092758;28;19960;-55
2022/05/27 05:00:02;;;;;;;;;;;;;;;;;;5091604;28;19915;-53
2022/05/27 05:02:29;;;;;;;;;;;;;;;;;;5092057;28;19962;-50
2022/05/27 05:04:56;;;;;;;;;;;;;;;;;;5092050;28;20354;-53
2022/05/27 05:07:22;;;;;;;;;;;;;;;;;;5091278;28;19920;-57
2022/05/27 05:09:49;;;;;;;;;;;;;;;;;;5091927;28;20332;-59
2022/05/27 05:12:15;;;;;;;;;;;;;;;;;;5092049;28;20330;-58
2022/05/27 05:14:42;;;;;;;;;;;;;;;;;;5092011;28;19916;-55
2022/05/27 05:17:08;;;;;;;;;;;;;;;;;;5090500;28;20285;-53
2022/05/27 05:19:35;;;;;;;;;;;;;;;;;;5091683;28;19912;-55
2022/05/27 05:22:01;;;;;;;;;;;;;;;;;;5091681;28;19919;-57
2022/05/27 05:24:28;;;;;;;;;;;;;;;;;;5091832;28;19961;-52
2022/05/27 05:26:54;;;;;;;;;;;;;;;;;;5092020;28;19999;-52
2022/05/27 05:29:21;;;;;;;;;;;;;;;;;;5091970;28;19916;-59
2022/05/27 05:31:47;;;;;;;;;;;;;;;;;;5091548;28;19958;-55
2022/05/27 05:34:14;;;;;;;;;;;;;;;;;;5091919;28;20244;-55
2022/05/27 05:36:40;;;;;;;;;;;;;;;;;;5091457;28;19908;-62
2022/05/27 05:39:07;;;;;;;;;;;;;;;;;;5091515;28;19908;-56
2022/05/27 05:41:33;;;;;;;;;;;;;;;;;;5092050;28;19908;-59
2022/05/27 05:44:00;;;;;;;;;;;;;;;;;;5091868;28;20002;-48
2022/05/27 05:46:26;;;;;;;;;;;;;;;;;;5095110;28;19954;-48
2022/05/27 05:48:53;;;;;;;;;;;;;;;;;;5094855;28;19916;-54
2022/05/27 05:51:19;;;;;;;;;;;;;;;;;;5095354;28;20429;-54
2022/05/27 05:53:46;;;;;;;;;;;;;;;;;;5095285;28;20371;-55
2022/05/27 05:56:13;;;;;;;;;;;;;;;;;;5095294;28;20343;-58
2022/05/27 05:58:39;;;;;;;;;;;;;;;;;;5095077;28;19915;-58
2022/05/27 06:01:06;;;;;;;;;;;;;;;;;;5094976;28;19998;-54
2022/05/27 06:03:32;;;;;;;;;;;;;;;;;;5094964;28;19928;-58
2022/05/27 06:05:59;;;;;;;;;;;;;;;;;;5094578;28;19912;-49
2022/05/27 06:08:26;;;;;;;;;;;;;;;;;;5094551;28;19960;-52
2022/05/27 06:10:52;;;;;;;;;;;;;;;;;;5093575;28;19908;-55
2022/05/27 06:13:19;;;;;;;;;;;;;;;;;;5094689;28;19915;-55
2022/05/27 06:15:45;;;;;;;;;;;;;;;;;;5094544;28;19912;-54
2022/05/27 06:18:13;;;;;;;;;;;;;;;;;;5094565;28;19995;-47
2022/05/27 06:20:40;;;;;;;;;;;;;;;;;;5094211;28;19913;-55
2022/05/27 06:23:07;;;;;;;;;;;;;;;;;;5094298;28;19915;-54
2022/05/27 06:25:33;;;;;;;;;;;;;;;;;;5094146;28;20009;-56
2022/05/27 06:36:13;;;;;;;;;;;;;;;;;;5093837;28;19931;-50
2022/05/27 06:38:40;;;;;;;;;;;;;;;;;;5093888;28;19930;-47
2022/05/27 06:41:06;;;;;;;;;;;;;;;;;;5093497;28;19908;-44
2022/05/27 06:43:33;;;;;;;;;;;;;;;;;;5093722;28;19912;-48
2022/05/27 06:46:00;;;;;;;;;;;;;;;;;;5094262;28;19944;-59
2022/05/27 06:48:26;;;;;;;;;;;;;;;;;;5093612;28;20406;-49
2022/05/27 06:50:52;;;;;;;;;;;;;;;;;;5093925;28;19919;-56
2022/05/27 06:53:19;;;;;;;;;;;;;;;;;;5093655;28;19915;-52
2022/05/27 06:55:45;;;;;;;;;;;;;;;;;;5093413;28;19953;-47
2022/05/27 06:58:12;;;;;;;;;;;;;;;;;;5093707;28;19913;-56
2022/05/27 07:00:38;;;;;;;;;;;;;;;;;;5093338;28;19908;-53
2022/05/27 07:03:05;;;;;;;;;;;;;;;;;;5093823;28;19912;-57
2022/05/27 07:05:32;;;;;;;;;;;;;;;;;;5093486;28;19962;-54
2022/05/27 07:07:58;;;;;;;;;;;;;;;;;;5093229;28;20014;-50
2022/05/27 07:10:25;;;;;;;;;;;;;;;;;;5093273;28;20019;-50
2022/05/27 07:12:51;;;;;;;;;;;;;;;;;;5093594;28;19915;-46
2022/05/27 07:15:18;;;;;;;;;;;;;;;;;;5093830;28;19910;-57
2022/05/27 07:17:44;;;;;;;;;;;;;;;;;;5093361;28;19912;-45
2022/05/27 07:20:11;;;;;;;;;;;;;;;;;;5093302;28;19927;-51
2022/05/27 07:22:38;;;;;;;;;;;;;;;;;;5093349;28;19938;-48
2022/05/27 07:25:04;;;;;;;;;;;;;;;;;;5093716;28;20047;-53
2022/05/27 07:27:31;;;;;;;;;;;;;;;;;;5093422;28;20362;-53
2022/05/27 07:29:57;;;;;;;;;;;;;;;;;;5092906;28;20286;-57
2022/05/27 07:32:24;;;;;;;;;;;;;;;;;;5093338;28;19912;-50
2022/05/27 07:34:50;;;;;;;;;;;;;;;;;;5093358;28;19947;-47
2022/05/27 07:37:16;;;;;;;;;;;;;;;;;;5093125;28;19908;-50
2022/05/27 07:39:43;;;;;;;;;;;;;;;;;;5092986;28;19969;-54
2022/05/27 07:42:10;;;;;;;;;;;;;;;;;;5092958;28;19908;-52
2022/05/27 07:44:36;;;;;;;;;;;;;;;;;;5091147;28;20011;-54
2022/05/27 07:47:03;;;;;;;;;;;;;;;;;;5093271;28;19908;-46
2022/05/27 07:49:30;;;;;;;;;;;;;;;;;;5091197;28;19939;-52
2022/05/27 07:51:56;;;;;;;;;;;;;;;;;;5092650;28;19916;-46
2022/05/27 07:54:23;;;;;;;;;;;;;;;;;;5093325;28;20331;-46
2022/05/27 07:56:49;;;;;;;;;;;;;;;;;;5093192;28;20367;-55
2022/05/27 07:59:16;;;;;;;;;;;;;;;;;;5092463;28;20316;-54
2022/05/27 08:01:42;;;;;;;;;;;;;;;;;;5092816;28;20317;-57
2022/05/27 08:04:09;;;;;;;;;;;;;;;;;;5093044;28;19908;-48
2022/05/27 08:06:35;;;;;;;;;;;;;;;;;;5091831;28;20290;-57
2022/05/27 08:09:02;;;;;;;;;;;;;;;;;;5092710;28;19980;-47
2022/05/27 08:11:28;;;;;;;;;;;;;;;;;;5092920;28;19953;-52
2022/05/27 08:13:55;;;;;;;;;;;;;;;;;;5092688;28;19919;-53
2022/05/27 08:16:22;;;;;;;;;;;;;;;;;;5092268;28;19908;-50
2022/05/27 08:18:48;;;;;;;;;;;;;;;;;;5092342;28;19908;-54
2022/05/27 08:21:16;;;;;;;;;;;;;;;;;;5092530;28;19912;-49
2022/05/27 08:23:42;;;;;;;;;;;;;;;;;;5092677;28;19923;-55
2022/05/27 08:26:09;;;;;;;;;;;;;;;;;;5092318;28;19994;-47
2022/05/27 08:28:35;;;;;;;;;;;;;;;;;;5092057;28;20091;-49
2022/05/27 08:31:02;;;;;;;;;;;;;;;;;;5092045;28;20071;-55
2022/05/27 08:38:59;;;;;;;;;;;;;;;;;;5092686;28;19965;-50
2022/05/27 08:41:26;;;;;;;;;;;;;;;;;;5092666;28;19939;-59
2022/05/27 08:43:52;;;;;;;;;;;;;;;;;;5092079;28;19935;-55
2022/05/27 08:46:19;;;;;;;;;;;;;;;;;;5091629;28;20265;-51
2022/05/27 08:48:45;;;;;;;;;;;;;;;;;;5091505;28;20002;-55
2022/05/27 08:51:12;;;;;;;;;;;;;;;;;;5091959;28;19916;-49
2022/05/27 08:53:38;;;;;;;;;;;;;;;;;;5092022;28;19924;-52
2022/05/27 09:01:34;;;;;;;;;;;;;;;;;;5091871;28;19915;-56
2022/05/27 09:04:01;;;;;;;;;;;;;;;;;;5092160;28;19960;-51
2022/05/27 09:06:27;;;;;;;;;;;;;;;;;;5092137;28;20315;-50
2022/05/27 09:08:53;;;;;;;;;;;;;;;;;;5092367;28;19916;-52
2022/05/27 09:11:22;;;;;;;;;;;;;;;;;;5092151;28;19919;-47
2022/05/27 09:13:48;;;;;;;;;;;;;;;;;;5091876;28;19948;-49
2022/05/27 09:16:15;;;;;;;;;;;;;;;;;;5092344;28;19912;-46
2022/05/27 09:18:41;;;;;;;;;;;;;;;;;;5093883;28;19908;-58
2022/05/27 09:21:07;;;;;;;;;;;;;;;;;;5096215;28;19912;-53
2022/05/27 09:23:34;;;;;;;;;;;;;;;;;;5096034;28;19908;-50
2022/05/27 09:26:01;;;;;;;;;;;;;;;;;;5095569;28;19908;-54
2022/05/27 09:28:28;;;;;;;;;;;;;;;;;;5095783;28;19908;-55
2022/05/27 09:30:54;;;;;;;;;;;;;;;;;;5095867;28;20368;-52
2022/05/27 09:33:21;;;;;;;;;;;;;;;;;;5095036;28;20356;-49
2022/05/27 09:35:47;;;;;;;;;;;;;;;;;;5095653;28;19908;-56
2022/05/27 09:38:14;;;;;;;;;;;;;;;;;;5095364;28;19908;-53
2022/05/27 09:40:40;;;;;;;;;;;;;;;;;;5095350;28;19908;-47
2022/05/27 09:43:07;;;;;;;;;;;;;;;;;;5095483;28;19908;-57
2022/05/27 09:45:35;;;;;;;;;;;;;;;;;;5095723;28;19909;-51
2022/05/27 09:48:04;;;;;;;;;;;;;;;;;;5095408;28;19916;-50
2022/05/27 09:50:31;;;;;;;;;;;;;;;;;;5095265;28;19916;-54
2022/05/27 09:52:57;;;;;;;;;;;;;;;;;;5095654;28;20382;-55
2022/05/27 09:55:24;;;;;;;;;;;;;;;;;;5095428;28;19908;-55
2022/05/27 09:57:50;;;;;;;;;;;;;;;;;;5095371;28;19943;-54
2022/05/27 10:00:17;;;;;;;;;;;;;;;;;;5095679;28;20359;-52
2022/05/27 10:02:43;;;;;;;;;;;;;;;;;;5095495;28;20896;-52
2022/05/27 10:05:09;;;;;;;;;;;;;;;;;;5095542;28;20346;-54
2022/05/27 10:07:36;;;;;;;;;;;;;;;;;;5094703;28;20254;-54
2022/05/27 10:10:03;;;;;;;;;;;;;;;;;;5095194;28;19958;-52
2022/05/27 10:12:29;;;;;;;;;;;;;;;;;;5094943;28;19915;-55
2022/05/27 10:14:56;;;;;;;;;;;;;;;;;;5095367;28;20399;-47
2022/05/27 10:17:22;;;;;;;;;;;;;;;;;;5095132;28;20231;-57
2022/05/27 10:19:48;;;;;;;;;;;;;;;;;;5095474;28;20002;-51
2022/05/27 10:22:15;;;;;;;;;;;;;;;;;;5094850;28;19911;-56
2022/05/27 10:24:41;;;;;;;;;;;;;;;;;;5094825;28;20070;-57
2022/05/27 10:27:08;;;;;;;;;;;;;;;;;;5094914;28;19908;-50
2022/05/27 10:29:34;;;;;;;;;;;;;;;;;;5093912;28;20204;-50
2022/05/27 10:32:01;;;;;;;;;;;;;;;;;;5094762;28;20020;-49
2022/05/27 10:34:27;;;;;;;;;;;;;;;;;;5094358;28;19908;-52
2022/05/27 10:36:54;;;;;;;;;;;;;;;;;;5094705;28;19908;-58
2022/05/27 10:39:20;;;;;;;;;;;;;;;;;;5095112;28;19908;-57
2022/05/27 10:41:47;;;;;;;;;;;;;;;;;;5094739;28;19908;-53
2022/05/27 10:44:14;;;;;;;;;;;;;;;;;;5094510;28;19909;-49
2022/05/27 10:46:41;;;;;;;;;;;;;;;;;;5094226;28;19909;-53
2022/05/27 10:49:07;;;;;;;;;;;;;;;;;;5094397;28;19916;-56
2022/05/27 10:51:34;;;;;;;;;;;;;;;;;;5094826;28;19939;-55
2022/05/27 10:54:00;;;;;;;;;;;;;;;;;;5094771;28;19947;-53
2022/05/27 10:56:27;;;;;;;;;;;;;;;;;;5094107;28;20278;-54
2022/05/27 11:04:22;;;;;;;;;;;;;;;;;;5094296;28;20407;-45
2022/05/27 11:06:49;;;;;;;;;;;;;;;;;;5093626;28;20393;-49
2022/05/27 11:09:15;;;;;;;;;;;;;;;;;;5094108;28;20357;-56
2022/05/27 11:11:42;;;;;;;;;;;;;;;;;;5094346;28;20038;-57
2022/05/27 11:16:53;;;;;;;;;;;;;;;;;;5094033;28;20023;-58
2022/05/27 11:19:19;;;;;;;;;;;;;;;;;;5093948;28;19909;-48
2022/05/27 11:21:47;;;;;;;;;;;;;;;;;;5094111;28;19912;-52
2022/05/27 11:24:14;;;;;;;;;;;;;;;;;;5093904;28;19908;-54
2022/05/27 11:26:40;;;;;;;;;;;;;;;;;;5093659;28;19908;-55
2022/05/27 11:29:07;;;;;;;;;;;;;;;;;;5093228;28;20423;-51
2022/05/27 11:31:33;;;;;;;;;;;;;;;;;;5093763;28;19915;-58
2022/05/27 11:34:00;;;;;;;;;;;;;;;;;;5093871;28;19915;-54
2022/05/27 11:36:26;;;;;;;;;;;;;;;;;;5093961;28;20000;-57
2022/05/27 11:38:53;;;;;;;;;;;;;;;;;;5093475;28;20385;-54
2022/05/27 11:41:19;;;;;;;;;;;;;;;;;;5093625;28;19970;-55
2022/05/27 11:43:46;;;;;;;;;;;;;;;;;;5093545;28;19909;-56
2022/05/27 11:46:12;;;;;;;;;;;;;;;;;;5093901;28;19915;-52
2022/05/27 11:48:38;;;;;;;;;;;;;;;;;;5093249;28;19930;-58
2022/05/27 11:51:07;;;;;;;;;;;;;;;;;;5093325;28;19912;-53
2022/05/27 11:53:33;;;;;;;;;;;;;;;;;;5093326;28;19973;-55
2022/05/27 11:56:00;;;;;;;;;;;;;;;;;;5093757;28;20406;-57
2022/05/27 11:58:26;;;;;;;;;;;;;;;;;;5092784;28;20010;-50
2022/05/27 12:00:53;;;;;;;;;;;;;;;;;;5093519;28;20363;-58
2022/05/27 12:03:19;;;;;;;;;;;;;;;;;;5093348;28;20312;-55
2022/05/27 12:05:46;;;;;;;;;;;;;;;;;;5093591;28;20371;-48
2022/05/27 12:08:12;;;;;;;;;;;;;;;;;;5093025;28;19931;-56
2022/05/27 12:10:39;;;;;;;;;;;;;;;;;;5092427;28;20019;-45
2022/05/27 12:13:09;;;;;;;;;;;;;;;;;;5091920;28;20284;-58
2022/05/27 12:15:35;;;;;;;;;;;;;;;;;;5092633;28;19912;-56
2022/05/27 12:18:02;;;;;;;;;;;;;;;;;;5092645;28;19908;-57
2022/05/27 12:20:28;;;;;;;;;;;;;;;;;;5092751;28;20350;-48
2022/05/27 12:22:55;;;;;;;;;;;;;;;;;;5092851;28;20340;-49
2022/05/27 12:25:21;;;;;;;;;;;;;;;;;;5092739;28;19908;-51
2022/05/27 12:27:49;;;;;;;;;;;;;;;;;;5092799;28;19980;-60
2022/05/27 12:30:15;;;;;;;;;;;;;;;;;;5093087;28;19927;-57
2022/05/27 12:32:41;;;;;;;;;;;;;;;;;;5093089;28;19920;-59
2022/05/27 12:35:08;;;;;;;;;;;;;;;;;;5093227;28;20255;-52
2022/05/27 12:37:34;;;;;;;;;;;;;;;;;;5092946;28;20084;-54
2022/05/27 12:40:01;;;;;;;;;;;;;;;;;;5093022;28;19908;-53
2022/05/27 12:42:27;;;;;;;;;;;;;;;;;;5092485;28;19947;-52
2022/05/27 12:44:54;;;;;;;;;;;;;;;;;;5092912;28;19916;-57
2022/05/27 12:47:20;;;;;;;;;;;;;;;;;;5092813;28;20019;-64
2022/05/27 12:49:47;;;;;;;;;;;;;;;;;;5092852;28;19920;-54
2022/05/27 12:52:13;;;;;;;;;;;;;;;;;;5092955;28;19927;-56
2022/05/27 12:54:39;;;;;;;;;;;;;;;;;;5095890;28;19961;-56
2022/05/27 13:02:36;;;;;;;;;;;;;;;;;;5096708;28;19962;-58
2022/05/27 13:05:03;;;;;;;;;;;;;;;;;;5097285;28;19908;-57
2022/05/27 13:07:29;;;;;;;;;;;;;;;;;;5096466;28;19920;-51
2022/05/27 13:09:56;;;;;;;;;;;;;;;;;;5096852;28;19922;-52
2022/05/27 13:12:22;;;;;;;;;;;;;;;;;;5096606;28;19912;-56
2022/05/27 13:14:49;;;;;;;;;;;;;;;;;;5096266;28;20274;-48
2022/05/27 13:17:15;;;;;;;;;;;;;;;;;;5096437;28;19955;-52
2022/05/27 13:19:42;;;;;;;;;;;;;;;;;;5096492;28;19915;-53
2022/05/27 13:22:08;;;;;;;;;;;;;;;;;;5096340;28;20350;-56
2022/05/27 13:24:36;;;;;;;;;;;;;;;;;;5096416;28;19912;-56
2022/05/27 13:27:03;;;;;;;;;;;;;;;;;;5096415;28;19915;-49
2022/05/27 13:29:31;;;;;;;;;;;;;;;;;;5096250;28;19931;-52
2022/05/27 13:31:57;;;;;;;;;;;;;;;;;;5096490;28;19916;-45
2022/05/27 13:34:24;;;;;;;;;;;;;;;;;;5095790;28;19904;-47
2022/05/27 13:36:51;;;;;;;;;;;;;;;;;;5096520;28;19948;-54
2022/05/27 13:39:17;;;;;;;;;;;;;;;;;;5096275;28;19916;-48
2022/05/27 13:41:44;;;;;;;;;;;;;;;;;;5095952;28;19999;-56
2022/05/27 13:44:10;;;;;;;;;;;;;;;;;;5095800;28;19905;-58
2022/05/27 13:46:37;;;;;;;;;;;;;;;;;;5095470;28;19915;-56
2022/05/27 13:49:03;;;;;;;;;;;;;;;;;;5095741;28;19969;-54
2022/05/27 13:51:29;;;;;;;;;;;;;;;;;;5095970;28;19908;-50
2022/05/27 13:53:56;;;;;;;;;;;;;;;;;;5095730;28;19915;-49
2022/05/27 13:56:22;;;;;;;;;;;;;;;;;;5095984;28;19915;-53
2022/05/27 13:58:49;;;;;;;;;;;;;;;;;;5094184;28;19908;-47
2022/05/27 14:01:15;;;;;;;;;;;;;;;;;;5095837;28;19919;-49
2022/05/27 14:03:42;;;;;;;;;;;;;;;;;;5095875;28;19909;-51
2022/05/27 14:06:08;;;;;;;;;;;;;;;;;;5094426;28;19917;-51
2022/05/27 14:08:35;;;;;;;;;;;;;;;;;;5095778;28;19928;-52
2022/05/27 14:11:01;;;;;;;;;;;;;;;;;;5095484;28;19959;-49
2022/05/27 14:13:28;;;;;;;;;;;;;;;;;;5095543;28;19908;-46
2022/05/27 14:15:54;;;;;;;;;;;;;;;;;;5095733;28;19912;-53
2022/05/27 14:18:21;;;;;;;;;;;;;;;;;;5095473;28;19912;-51
2022/05/27 14:23:32;;;;;;;;;;;;;;;;;;5095293;28;19961;-52
2022/05/27 14:25:59;;;;;;;;;;;;;;;;;;5095403;28;19909;-56
2022/05/27 14:28:27;;;;;;;;;;;;;;;;;;5095131;28;19920;-45
2022/05/27 14:30:54;;;;;;;;;;;;;;;;;;5095483;28;19924;-45
2022/05/27 14:33:20;;;;;;;;;;;;;;;;;;5095568;28;19947;-57
2022/05/27 14:35:47;;;;;;;;;;;;;;;;;;5095316;28;19914;-48
2022/05/27 14:38:13;;;;;;;;;;;;;;;;;;5095060;28;20435;-45
2022/05/27 14:40:40;;;;;;;;;;;;;;;;;;5094795;28;20274;-51
2022/05/27 14:43:07;;;;;;;;;;;;;;;;;;5095054;28;20003;-47
2022/05/27 14:45:33;;;;;;;;;;;;;;;;;;5095285;28;20399;-54
2022/05/27 14:48:00;;;;;;;;;;;;;;;;;;5095487;28;20319;-48
2022/05/27 14:50:26;;;;;;;;;;;;;;;;;;5094820;28;19916;-48
2022/05/27 14:52:53;;;;;;;;;;;;;;;;;;5095129;28;19908;-52
2022/05/27 14:55:19;;;;;;;;;;;;;;;;;;5095031;28;19909;-49
2022/05/27 14:57:45;;;;;;;;;;;;;;;;;;5094637;28;19912;-50
2022/05/27 15:00:12;;;;;;;;;;;;;;;;;;5094879;28;19916;-54
2022/05/27 15:02:38;;;;;;;;;;;;;;;;;;5094690;28;19998;-47
2022/05/27 15:05:05;;;;;;;;;;;;;;;;;;5094859;28;19991;-48
2022/05/27 15:07:32;;;;;;;;;;;;;;;;;;5094061;28;19974;-54
2022/05/27 15:09:58;;;;;;;;;;;;;;;;;;5094688;28;20371;-46
2022/05/27 15:12:25;;;;;;;;;;;;;;;;;;5094348;28;19912;-50
2022/05/27 15:14:51;;;;;;;;;;;;;;;;;;5094775;28;19987;-46
2022/05/27 15:17:18;;;;;;;;;;;;;;;;;;5094156;28;19935;-46
2022/05/27 15:19:44;;;;;;;;;;;;;;;;;;5094443;28;19951;-47
2022/05/27 15:22:11;;;;;;;;;;;;;;;;;;5094379;28;19908;-50
2022/05/27 15:24:38;;;;;;;;;;;;;;;;;;5094289;28;19908;-55
2022/05/27 15:35:19;;;;;;;;;;;;;;;;;;5094236;28;20270;-57
2022/05/27 15:37:45;;;;;;;;;;;;;;;;;;5094574;28;19930;-57
2022/05/27 15:40:12;;;;;;;;;;;;;;;;;;5094246;28;19954;-57
2022/05/27 15:42:38;;;;;;;;;;;;;;;;;;5093603;28;19943;-55
2022/05/27 15:45:05;;;;;;;;;;;;;;;;;;5093925;28;19912;-54
2022/05/27 15:47:31;;;;;;;;;;;;;;;;;;5094186;28;19995;-54
2022/05/27 15:49:57;;;;;;;;;;;;;;;;;;5094143;28;19917;-53
2022/05/27 15:52:25;;;;;;;;;;;;;;;;;;5093739;28;20049;-44
2022/05/27 15:54:51;;;;;;;;;;;;;;;;;;5093918;28;20371;-49
2022/05/27 15:57:17;;;;;;;;;;;;;;;;;;5093772;28;19908;-55
2022/05/27 15:59:44;;;;;;;;;;;;;;;;;;5093777;28;19960;-46
2022/05/27 16:02:11;;;;;;;;;;;;;;;;;;5093801;28;19908;-46
2022/05/27 16:04:39;;;;;;;;;;;;;;;;;;5093606;28;19960;-45
2022/05/27 16:07:05;;;;;;;;;;;;;;;;;;5093573;28;20255;-51
2022/05/27 16:09:32;;;;;;;;;;;;;;;;;;5093895;28;19912;-47
2022/05/27 16:11:58;;;;;;;;;;;;;;;;;;5093578;28;19912;-55
2022/05/27 16:14:26;;;;;;;;;;;;;;;;;;5093334;28;19940;-46
2022/05/27 16:19:37;;;;;;;;;;;;;;;;;;5093592;28;19930;-48
2022/05/27 16:22:03;;;;;;;;;;;;;;;;;;5093371;28;19934;-48
2022/05/27 16:24:30;;;;;;;;;;;;;;;;;;5093271;28;19944;-42
2022/05/27 16:26:56;;;;;;;;;;;;;;;;;;5093274;28;19913;-53
2022/05/27 16:29:23;;;;;;;;;;;;;;;;;;5092783;28;20011;-54
2022/05/27 16:31:49;;;;;;;;;;;;;;;;;;5093466;28;19908;-51
2022/05/27 16:34:16;;;;;;;;;;;;;;;;;;5093430;28;19908;-51
2022/05/27 16:36:42;;;;;;;;;;;;;;;;;;5093161;28;19908;-51
2022/05/27 16:39:09;;;;;;;;;;;;;;;;;;5093359;28;19908;-46
2022/05/27 16:41:35;;;;;;;;;;;;;;;;;;5093390;28;19915;-53
2022/05/27 16:44:02;;;;;;;;;;;;;;;;;;5093317;28;19908;-49
2022/05/27 16:46:29;;;;;;;;;;;;;;;;;;5093036;28;19915;-49
2022/05/27 16:48:55;;;;;;;;;;;;;;;;;;5093305;28;20379;-49
2022/05/27 16:51:21;;;;;;;;;;;;;;;;;;5093322;28;20366;-50
2022/05/27 16:53:48;;;;;;;;;;;;;;;;;;5093166;28;19948;-44
2022/05/27 16:56:14;;;;;;;;;;;;;;;;;;5093153;28;19912;-54
2022/05/27 16:58:42;;;;;;;;;;;;;;;;;;5092903;28;20003;-52
2022/05/27 17:01:08;;;;;;;;;;;;;;;;;;5093061;28;19908;-49
2022/05/27 17:03:35;;;;;;;;;;;;;;;;;;5093208;28;19919;-49
2022/05/27 17:06:01;;;;;;;;;;;;;;;;;;5092931;28;19954;-48
2022/05/27 17:08:28;;;;;;;;;;;;;;;;;;5092908;28;19963;-51
2022/05/27 17:10:55;;;;;;;;;;;;;;;;;;5092891;28;19920;-49
2022/05/27 17:13:22;;;;;;;;;;;;;;;;;;5092916;28;19965;-43
2022/05/27 17:15:49;;;;;;;;;;;;;;;;;;5093069;28;19908;-50
2022/05/27 17:18:15;;;;;;;;;;;;;;;;;;5092818;28;20007;-50
2022/05/27 17:20:42;;;;;;;;;;;;;;;;;;5092917;28;20010;-47
2022/05/27 17:23:08;;;;;;;;;;;;;;;;;;5092884;28;19908;-48
2022/05/27 17:25:35;;;;;;;;;;;;;;;;;;5092935;28;20015;-49
2022/05/27 17:28:01;;;;;;;;;;;;;;;;;;5092950;28;19915;-51
2022/05/27 17:30:28;;;;;;;;;;;;;;;;;;5092615;28;19951;-50
2022/05/27 17:32:54;;;;;;;;;;;;;;;;;;5092784;28;19908;-52